Time;durP1;ratioP1;P1;durP2;ratioP2;P2;SDS_P1;SDS_P2;PMS_P1;PMS_P2;Temp;Humidity;BMP_temperature;BMP_pressure;BME280_temperature;BME280_humidity;BME280_pressure;Samples;Min_cycle;Max_cycle;Signal;HPM_P1;HPM_P2
2022/04/06 00:01:43;;;;;;;32.00;9.20;;;;;;;;;;5014135;28;95366;-76
2022/04/06 00:04:10;;;;;;;34.13;8.65;;;;;;;;;;5010385;28;97262;-76
2022/04/06 00:06:36;;;;;;;30.90;8.77;;;;;;;;;;5011263;28;95760;-76
2022/04/06 00:09:15;;;;;;;33.88;9.20;;;;;;;;;;5009622;28;96997;-76
2022/04/06 00:11:41;;;;;;;32.40;9.35;;;;;;;;;;5009819;28;97403;-74
2022/04/06 00:14:07;;;;;;;34.50;9.50;;;;;;;;;;5009421;28;95773;-75
2022/04/06 00:16:34;;;;;;;28.38;9.90;;;;;;;;;;5010752;28;96863;-76
2022/04/06 00:19:00;;;;;;;33.88;10.32;;;;;;;;;;5009993;28;96451;-75
2022/04/06 00:21:27;;;;;;;40.38;10.25;;;;;;;;;;5010610;28;95753;-76
2022/04/06 00:23:54;;;;;;;33.33;9.63;;;;;;;;;;5013604;28;96735;-75
2022/04/06 00:26:21;;;;;;;34.05;10.30;;;;;;;;;;5010488;28;95649;-75
2022/04/06 00:28:50;;;;;;;32.55;10.05;;;;;;;;;;5009858;28;97092;-77
2022/04/06 00:31:17;;;;;;;31.58;9.38;;;;;;;;;;5009009;28;97329;-76
2022/04/06 00:33:44;;;;;;;33.17;10.88;;;;;;;;;;5008011;28;95518;-76
2022/04/06 00:36:13;;;;;;;32.92;10.63;;;;;;;;;;5008971;28;97729;-76
2022/04/06 00:38:40;;;;;;;33.75;10.63;;;;;;;;;;5018491;28;97947;-76
2022/04/06 00:41:09;;;;;;;34.47;10.02;;;;;;;;;;5030061;27;95784;-77
2022/04/06 00:43:35;;;;;;;36.63;10.50;;;;;;;;;;5030293;27;97120;-76
2022/04/06 00:46:05;;;;;;;32.35;9.82;;;;;;;;;;5032563;27;97248;-77
2022/04/06 00:48:34;;;;;;;36.78;11.52;;;;;;;;;;4990853;28;97058;-75
2022/04/06 00:51:01;;;;;;;32.95;9.98;;;;;;;;;;5009128;28;98303;-76
2022/04/06 00:53:30;;;;;;;29.88;9.90;;;;;;;;;;5030334;28;95869;-75
2022/04/06 00:55:57;;;;;;;33.50;10.07;;;;;;;;;;5030110;28;96794;-76
2022/04/06 00:58:24;;;;;;;34.35;9.35;;;;;;;;;;5011634;28;96971;-76
2022/04/06 01:00:53;;;;;;;32.35;10.50;;;;;;;;;;5009248;28;95589;-74
2022/04/06 01:03:23;;;;;;;32.40;10.25;;;;;;;;;;5009880;28;97038;-74
2022/04/06 01:05:54;;;;;;;34.50;10.37;;;;;;;;;;5012599;28;97783;-74
2022/04/06 01:08:21;;;;;;;33.80;10.95;;;;;;;;;;5009391;28;96881;-74
2022/04/06 01:10:47;;;;;;;31.55;9.48;;;;;;;;;;5009134;28;97369;-76
2022/04/06 01:13:13;;;;;;;26.13;9.45;;;;;;;;;;5010241;28;95312;-75
2022/04/06 01:15:42;;;;;;;29.25;10.40;;;;;;;;;;5009976;28;96930;-75
2022/04/06 01:18:09;;;;;;;30.15;10.85;;;;;;;;;;5008924;28;97555;-75
2022/04/06 01:20:35;;;;;;;39.80;10.05;;;;;;;;;;5009879;28;95737;-74
2022/04/06 01:23:03;;;;;;;29.85;9.35;;;;;;;;;;5009688;28;96606;-74
2022/04/06 01:25:29;;;;;;;35.10;11.38;;;;;;;;;;5009197;28;97361;-74
2022/04/06 01:27:56;;;;;;;31.95;9.50;;;;;;;;;;5012948;28;95734;-73
2022/04/06 01:30:22;;;;;;;30.60;9.90;;;;;;;;;;5008245;28;97432;-75
2022/04/06 01:32:50;;;;;;;36.95;10.30;;;;;;;;;;5009535;28;95467;-75
2022/04/06 01:35:17;;;;;;;29.15;10.07;;;;;;;;;;5007855;28;95866;-75
2022/04/06 01:37:43;;;;;;;23.15;8.18;;;;;;;;;;5009330;28;96927;-76
2022/04/06 01:40:10;;;;;;;30.77;8.68;;;;;;;;;;5009394;28;95725;-76
2022/04/06 01:42:37;;;;;;;25.90;8.73;;;;;;;;;;5009608;28;96727;-76
2022/04/06 01:45:04;;;;;;;28.67;8.70;;;;;;;;;;5007791;28;96321;-76
2022/04/06 01:47:30;;;;;;;28.48;9.60;;;;;;;;;;5009354;28;95547;-76
2022/04/06 01:52:44;;;;;;;40.40;9.15;;;;;;;;;;5009188;28;95309;-76
2022/04/06 01:55:12;;;;;;;30.25;9.38;;;;;;;;;;5023018;28;97226;-75
2022/04/06 01:57:39;;;;;;;29.48;9.05;;;;;;;;;;5015041;28;97342;-75
2022/04/06 02:00:10;;;;;;;35.97;8.43;;;;;;;;;;5006179;28;95721;-75
2022/04/06 02:02:37;;;;;;;27.42;7.93;;;;;;;;;;4994895;28;97163;-74
2022/04/06 02:05:04;;;;;;;30.55;7.63;;;;;;;;;;4993462;28;98006;-78
2022/04/06 02:07:31;;;;;;;28.83;8.65;;;;;;;;;;5008889;28;96006;-77
2022/04/06 02:09:59;;;;;;;23.27;7.32;;;;;;;;;;5009004;28;96835;-76
2022/04/06 02:12:26;;;;;;;22.83;7.38;;;;;;;;;;5012147;28;97657;-75
2022/04/06 02:14:52;;;;;;;20.85;7.65;;;;;;;;;;5008659;28;97539;-77
2022/04/06 02:17:19;;;;;;;22.52;7.00;;;;;;;;;;5008679;28;97416;-77
2022/04/06 02:19:45;;;;;;;27.38;7.95;;;;;;;;;;5009262;28;95741;-77
2022/04/06 02:22:12;;;;;;;26.40;7.78;;;;;;;;;;5007871;28;97484;-75
2022/04/06 02:24:39;;;;;;;21.88;7.25;;;;;;;;;;5001570;28;97728;-74
2022/04/06 02:27:06;;;;;;;21.50;6.70;;;;;;;;;;4989109;28;95423;-75
2022/04/06 02:29:37;;;;;;;25.98;6.85;;;;;;;;;;4993695;28;97783;-73
2022/04/06 02:32:04;;;;;;;21.70;6.72;;;;;;;;;;5008717;28;98624;-74
2022/04/06 02:34:31;;;;;;;24.25;6.20;;;;;;;;;;5012058;28;95450;-75
2022/04/06 02:36:58;;;;;;;26.15;7.65;;;;;;;;;;5008104;28;96661;-73
2022/04/06 02:39:24;;;;;;;22.75;6.47;;;;;;;;;;5008794;28;95870;-74
2022/04/06 02:41:51;;;;;;;24.77;5.78;;;;;;;;;;5009017;28;97084;-73
2022/04/06 02:44:17;;;;;;;22.77;5.90;;;;;;;;;;5007091;28;97958;-74
2022/04/06 02:46:50;;;;;;;18.30;6.10;;;;;;;;;;5009012;28;95174;-73
2022/04/06 02:49:17;;;;;;;19.48;5.68;;;;;;;;;;5006272;28;97286;-74
2022/04/06 02:51:44;;;;;;;15.13;5.47;;;;;;;;;;5007553;28;97995;-74
2022/04/06 02:54:11;;;;;;;18.67;5.43;;;;;;;;;;4990869;28;95425;-73
2022/04/06 02:56:37;;;;;;;17.95;5.38;;;;;;;;;;4992372;28;96786;-73
2022/04/06 02:59:04;;;;;;;21.58;5.00;;;;;;;;;;5011458;28;95629;-74
2022/04/06 03:01:30;;;;;;;26.85;5.13;;;;;;;;;;5012041;28;97217;-75
2022/04/06 03:03:57;;;;;;;20.45;4.55;;;;;;;;;;5011568;28;97385;-76
2022/04/06 03:06:24;;;;;;;14.25;4.00;;;;;;;;;;5012068;28;95554;-76
2022/04/06 03:08:50;;;;;;;24.08;4.25;;;;;;;;;;5011672;28;97284;-76
2022/04/06 03:11:16;;;;;;;19.90;4.38;;;;;;;;;;5011134;28;97376;-77
2022/04/06 03:13:43;;;;;;;11.00;3.70;;;;;;;;;;5010752;28;95323;-76
2022/04/06 03:16:09;;;;;;;14.38;3.55;;;;;;;;;;5014763;28;97442;-75
2022/04/06 03:18:36;;;;;;;12.50;3.53;;;;;;;;;;5011601;28;95763;-75
2022/04/06 03:21:02;;;;;;;14.23;4.10;;;;;;;;;;5010523;28;97000;-76
2022/04/06 03:23:28;;;;;;;15.07;3.88;;;;;;;;;;5011255;28;97873;-76
2022/04/06 03:25:55;;;;;;;14.52;4.95;;;;;;;;;;5009766;28;95549;-75
2022/04/06 03:28:21;;;;;;;12.13;3.72;;;;;;;;;;5011315;28;96963;-74
2022/04/06 03:30:48;;;;;;;12.18;3.38;;;;;;;;;;5011672;28;97428;-75
2022/04/06 03:33:15;;;;;;;13.80;3.28;;;;;;;;;;5011339;28;95811;-76
2022/04/06 03:35:42;;;;;;;12.23;3.20;;;;;;;;;;5011048;28;96789;-76
2022/04/06 03:38:08;;;;;;;10.50;3.22;;;;;;;;;;5015543;28;98138;-77
2022/04/06 03:40:38;;;;;;;13.07;4.30;;;;;;;;;;5008254;28;97050;-75
2022/04/06 03:43:05;;;;;;;13.32;3.60;;;;;;;;;;5010948;28;97872;-75
2022/04/06 03:45:35;;;;;;;13.55;3.00;;;;;;;;;;5009877;28;95745;-73
2022/04/06 03:48:01;;;;;;;15.43;2.90;;;;;;;;;;5010719;28;97489;-74
2022/04/06 03:50:27;;;;;;;22.83;3.42;;;;;;;;;;5010380;28;98219;-74
2022/04/06 03:52:54;;;;;;;15.07;2.83;;;;;;;;;;5010965;28;95349;-76
2022/04/06 03:55:22;;;;;;;11.80;2.55;;;;;;;;;;5011056;28;99960;-76
2022/04/06 03:57:51;;;;;;;9.50;2.47;;;;;;;;;;5011337;28;97465;-76
2022/04/06 04:00:18;;;;;;;17.40;3.20;;;;;;;;;;5012278;28;95598;-74
2022/04/06 04:02:45;;;;;;;13.48;2.72;;;;;;;;;;5011068;28;97315;-76
2022/04/06 04:05:12;;;;;;;12.75;2.80;;;;;;;;;;5011103;28;95462;-73
2022/04/06 04:07:39;;;;;;;14.13;2.72;;;;;;;;;;5010278;28;97224;-75
2022/04/06 04:10:06;;;;;;;11.68;2.40;;;;;;;;;;5010461;28;98015;-75
2022/04/06 04:12:34;;;;;;;10.52;2.50;;;;;;;;;;5010571;28;96681;-74
2022/04/06 04:15:02;;;;;;;10.25;2.83;;;;;;;;;;5010366;28;97509;-75
2022/04/06 04:17:29;;;;;;;12.93;2.28;;;;;;;;;;5010761;28;97992;-74
2022/04/06 04:19:55;;;;;;;11.15;2.40;;;;;;;;;;5009417;28;95952;-74
2022/04/06 04:22:22;;;;;;;12.63;2.65;;;;;;;;;;4993389;28;96890;-73
2022/04/06 04:24:51;;;;;;;15.73;2.15;;;;;;;;;;5003656;28;95610;-74
2022/04/06 04:27:18;;;;;;;9.82;2.42;;;;;;;;;;5010995;28;97133;-73
2022/04/06 04:29:45;;;;;;;17.15;2.28;;;;;;;;;;5002714;28;97709;-76
2022/04/06 04:32:11;;;;;;;15.52;2.67;;;;;;;;;;5017317;28;95763;-75
2022/04/06 04:34:40;;;;;;;14.07;2.97;;;;;;;;;;5030345;28;97114;-77
2022/04/06 04:37:06;;;;;;;10.30;2.40;;;;;;;;;;5026568;28;98233;-74
2022/04/06 04:39:35;;;;;;;17.48;3.03;;;;;;;;;;5022849;28;95606;-74
2022/04/06 04:42:02;;;;;;;12.23;2.72;;;;;;;;;;5026882;28;97741;-75
2022/04/06 04:44:28;;;;;;;14.27;2.80;;;;;;;;;;5030213;28;98093;-76
2022/04/06 04:46:55;;;;;;;13.10;3.10;;;;;;;;;;5009025;28;97699;-76
2022/04/06 04:49:21;;;;;;;14.25;2.95;;;;;;;;;;5009469;28;97587;-76
2022/04/06 04:51:47;;;;;;;11.07;2.90;;;;;;;;;;5005078;28;95479;-76
2022/04/06 04:54:14;;;;;;;11.07;2.80;;;;;;;;;;4990233;28;96833;-74
2022/04/06 04:56:42;;;;;;;12.55;2.90;;;;;;;;;;4989818;28;97323;-76
2022/04/06 04:59:09;;;;;;;14.93;3.17;;;;;;;;;;4990166;28;95561;-76
2022/04/06 05:01:35;;;;;;;11.10;3.60;;;;;;;;;;5010636;28;97204;-76
2022/04/06 19:52:06;;;;;;;17.02;10.55;;;;;;;;;;5007210;28;95215;-79
2022/04/06 19:54:32;;;;;;;14.93;11.57;;;;;;;;;;4997599;28;97336;-79
2022/04/06 19:57:00;;;;;;;13.48;10.35;;;;;;;;;;4998659;28;96145;-80
2022/04/06 19:59:27;;;;;;;14.05;10.48;;;;;;;;;;4984649;28;96697;-79
2022/04/06 20:01:53;;;;;;;15.95;10.70;;;;;;;;;;4985287;28;97286;-75
2022/04/06 20:04:20;;;;;;;13.25;9.65;;;;;;;;;;4988345;28;95697;-80
2022/04/06 20:06:47;;;;;;;15.95;9.52;;;;;;;;;;4985182;28;97090;-78
2022/04/06 20:09:14;;;;;;;13.43;9.10;;;;;;;;;;4985200;28;97424;-79
2022/04/06 20:11:40;;;;;;;13.07;8.95;;;;;;;;;;4989175;28;95745;-78
2022/04/06 20:14:07;;;;;;;11.63;8.05;;;;;;;;;;4997431;28;97362;-77
2022/04/06 20:16:33;;;;;;;9.63;7.63;;;;;;;;;;5006292;28;95363;-77
2022/04/06 20:19:00;;;;;;;11.40;7.10;;;;;;;;;;5005497;28;96646;-77
2022/04/06 20:21:29;;;;;;;12.35;7.45;;;;;;;;;;5005735;28;97365;-74
2022/04/06 20:23:57;;;;;;;13.43;7.45;;;;;;;;;;4998229;28;95410;-75
2022/04/06 20:26:23;;;;;;;11.88;6.78;;;;;;;;;;4985636;28;97169;-75
2022/04/06 20:28:50;;;;;;;11.07;6.93;;;;;;;;;;4984525;28;97243;-74
2022/04/06 20:31:16;;;;;;;9.55;6.30;;;;;;;;;;4985403;28;95477;-74
2022/04/06 20:33:42;;;;;;;12.85;7.03;;;;;;;;;;4994246;28;96949;-74
2022/04/06 20:36:09;;;;;;;10.10;6.60;;;;;;;;;;5005391;28;95487;-75
2022/04/06 20:38:39;;;;;;;9.45;5.85;;;;;;;;;;5005329;28;96757;-77
2022/04/06 20:41:05;;;;;;;8.63;5.88;;;;;;;;;;5005209;28;97403;-77
2022/04/06 20:43:32;;;;;;;9.88;5.65;;;;;;;;;;5001623;28;95639;-76
2022/04/06 20:45:58;;;;;;;11.93;6.00;;;;;;;;;;4985283;28;97175;-74
2022/04/06 20:48:24;;;;;;;12.55;5.82;;;;;;;;;;4986394;28;97347;-76
2022/04/06 20:50:51;;;;;;;9.27;5.65;;;;;;;;;;4984962;28;95520;-75
2022/04/06 20:53:17;;;;;;;9.43;5.57;;;;;;;;;;4985143;28;96800;-78
2022/04/06 20:55:45;;;;;;;8.35;5.03;;;;;;;;;;4988319;28;96293;-75
2022/04/06 20:58:11;;;;;;;8.55;4.80;;;;;;;;;;4986425;28;96745;-77
2022/04/06 21:00:37;;;;;;;8.48;5.13;;;;;;;;;;4984815;28;97056;-75
2022/04/06 21:03:05;;;;;;;8.07;4.57;;;;;;;;;;4973487;28;95441;-74
2022/04/06 21:05:52;;;;;;;9.82;5.22;;;;;;;;;;4972089;28;98790;-77
2022/04/06 21:08:19;;;;;;;10.30;5.40;;;;;;;;;;4978661;28;97393;-77
2022/04/06 21:10:45;;;;;;;7.40;5.10;;;;;;;;;;4992050;28;95333;-77
2022/04/06 21:13:11;;;;;;;10.13;5.30;;;;;;;;;;4991688;28;97316;-74
2022/04/06 21:15:38;;;;;;;9.45;5.68;;;;;;;;;;4991210;28;97556;-75
2022/04/06 21:18:04;;;;;;;11.65;6.65;;;;;;;;;;4989255;28;95217;-75
2022/04/06 21:20:32;;;;;;;10.65;5.75;;;;;;;;;;4970941;28;97973;-78
2022/04/06 21:22:59;;;;;;;13.35;5.43;;;;;;;;;;4971597;28;95306;-77
2022/04/06 21:25:25;;;;;;;15.23;5.75;;;;;;;;;;4971565;28;96864;-73
2022/04/06 21:27:52;;;;;;;9.15;5.32;;;;;;;;;;4971696;28;97388;-77
2022/04/06 21:30:18;;;;;;;10.15;5.55;;;;;;;;;;4972136;28;96865;-74
2022/04/06 21:32:44;;;;;;;7.93;5.60;;;;;;;;;;4971749;28;96854;-78
2022/04/06 21:35:11;;;;;;;9.60;5.43;;;;;;;;;;4970603;28;97378;-77
2022/04/06 21:37:37;;;;;;;8.93;5.47;;;;;;;;;;4971690;28;95897;-76
2022/04/06 21:40:04;;;;;;;12.73;5.07;;;;;;;;;;4990253;28;97127;-77
2022/04/06 21:42:30;;;;;;;10.38;5.28;;;;;;;;;;4990807;28;96061;-77
2022/04/06 21:44:56;;;;;;;14.10;5.28;;;;;;;;;;4989946;28;95747;-77
2022/04/06 21:47:23;;;;;;;7.28;3.90;;;;;;;;;;4991126;28;97575;-77
2022/04/06 21:49:49;;;;;;;7.55;3.88;;;;;;;;;;4976046;28;95487;-76
2022/04/06 21:52:15;;;;;;;6.57;3.63;;;;;;;;;;5002879;28;97214;-75
2022/04/06 21:54:42;;;;;;;7.60;3.92;;;;;;;;;;4970628;28;97407;-76
2022/04/06 21:57:14;;;;;;;;;;;;;;;;;;4971052;28;95296;-77
2022/04/06 21:59:42;;;;;;;5.78;3.80;;;;;;;;;;4980221;28;127273;-76
2022/04/06 22:02:08;;;;;;;9.95;3.38;;;;;;;;;;4993097;28;95470;-75
2022/04/06 22:04:35;;;;;;;9.73;3.40;;;;;;;;;;4990365;28;97515;-76
2022/04/06 22:07:01;;;;;;;8.90;3.45;;;;;;;;;;4990593;28;97276;-76
2022/04/06 22:09:27;;;;;;;9.43;3.60;;;;;;;;;;4983350;28;95201;-77
2022/04/06 22:11:54;;;;;;;7.43;3.28;;;;;;;;;;4970815;28;97031;-77
2022/04/06 22:14:20;;;;;;;7.15;3.25;;;;;;;;;;4969258;28;97738;-76
2022/04/06 22:16:48;;;;;;;10.43;3.60;;;;;;;;;;4970776;28;95220;-75
2022/04/06 22:19:14;;;;;;;6.22;3.42;;;;;;;;;;4975348;28;96806;-75
2022/04/06 22:21:41;;;;;;;10.18;3.50;;;;;;;;;;4993464;28;97367;-75
2022/04/06 22:24:08;;;;;;;7.25;3.40;;;;;;;;;;4990217;28;97114;-74
2022/04/06 22:26:34;;;;;;;6.88;3.10;;;;;;;;;;4990445;28;97318;-75
2022/04/06 22:29:00;;;;;;;9.48;3.40;;;;;;;;;;4989431;28;95415;-76
2022/04/06 22:31:28;;;;;;;9.82;3.78;;;;;;;;;;4970310;28;96774;-74
2022/04/06 22:33:55;;;;;;;8.70;3.45;;;;;;;;;;4970525;28;97189;-75
2022/04/06 22:36:21;;;;;;;6.93;3.45;;;;;;;;;;4970510;28;95844;-74
2022/04/06 22:38:47;;;;;;;7.13;3.67;;;;;;;;;;4970494;28;96797;-76
2022/04/06 22:41:14;;;;;;;8.40;3.55;;;;;;;;;;4986337;28;97486;-75
2022/04/06 22:43:41;;;;;;;8.35;3.80;;;;;;;;;;4993931;28;96091;-76
2022/04/06 22:46:07;;;;;;;7.78;4.22;;;;;;;;;;4989288;28;96362;-76
2022/04/06 22:48:34;;;;;;;9.13;4.53;;;;;;;;;;4990094;28;95313;-75
2022/04/06 22:51:00;;;;;;;9.57;5.35;;;;;;;;;;4974157;28;96756;-74
2022/04/06 22:53:26;;;;;;;9.80;5.30;;;;;;;;;;4969751;28;97478;-75
2022/04/06 22:55:53;;;;;;;6.93;5.72;;;;;;;;;;4970407;28;95385;-74
2022/04/06 22:58:19;;;;;;;9.02;5.75;;;;;;;;;;4969002;28;97396;-77
2022/04/06 23:00:45;;;;;;;9.80;5.97;;;;;;;;;;4970580;28;97414;-75
2022/04/06 23:03:12;;;;;;;7.20;5.60;;;;;;;;;;4968688;28;95461;-76
2022/04/06 23:05:38;;;;;;;11.52;6.63;;;;;;;;;;4973288;28;96624;-77
2022/04/06 23:08:05;;;;;;;10.57;6.25;;;;;;;;;;4969642;28;95781;-75
2022/04/06 23:10:31;;;;;;;10.82;7.22;;;;;;;;;;4977276;28;96840;-76
2022/04/06 23:12:57;;;;;;;10.35;7.53;;;;;;;;;;4989293;28;96478;-77
2022/04/06 23:15:24;;;;;;;9.82;6.63;;;;;;;;;;4989799;28;95620;-75
2022/04/06 23:17:50;;;;;;;9.15;6.97;;;;;;;;;;4989925;28;96814;-77
2022/04/06 23:20:17;;;;;;;11.40;6.80;;;;;;;;;;4983724;28;97389;-77
2022/04/06 23:22:43;;;;;;;11.23;5.88;;;;;;;;;;4970068;28;96005;-74
2022/04/06 23:25:10;;;;;;;7.95;5.13;;;;;;;;;;4969523;28;97029;-73
2022/04/06 23:27:36;;;;;;;10.70;5.90;;;;;;;;;;4972532;28;97355;-74
2022/04/06 23:30:02;;;;;;;8.93;5.63;;;;;;;;;;4969734;28;97175;-75
2022/04/06 23:32:29;;;;;;;8.38;5.18;;;;;;;;;;4970497;28;96312;-72
2022/04/06 23:34:55;;;;;;;11.18;5.40;;;;;;;;;;4969414;28;95451;-75
2022/04/06 23:37:21;;;;;;;12.05;5.10;;;;;;;;;;4969633;28;96894;-77
2022/04/06 23:39:47;;;;;;;12.95;5.40;;;;;;;;;;4980944;28;97651;-74
2022/04/06 23:42:14;;;;;;;11.27;5.45;;;;;;;;;;4988817;28;95637;-77
2022/04/06 23:44:40;;;;;;;10.77;5.05;;;;;;;;;;4989487;28;96748;-77
2022/04/06 23:47:07;;;;;;;15.30;5.28;;;;;;;;;;4987760;28;97333;-77
2022/04/06 23:49:33;;;;;;;13.07;5.03;;;;;;;;;;4982753;28;95676;-77
2022/04/06 23:51:59;;;;;;;9.23;4.50;;;;;;;;;;4968860;28;96389;-75
2022/04/06 23:54:26;;;;;;;10.55;4.05;;;;;;;;;;4969731;28;95696;-77
2022/04/06 23:56:52;;;;;;;16.73;4.18;;;;;;;;;;5000619;28;97174;-75
2022/04/06 23:59:18;;;;;;;10.02;4.32;;;;;;;;;;4975757;28;97404;-75
